createdAt,value
2017-11-23T00:01:14.576Z,7.36
2017-11-23T00:03:42.148Z,7.35
2017-11-23T00:06:09.725Z,7.25
2017-11-23T00:08:37.337Z,7.22
2017-11-23T00:11:04.923Z,7.20
2017-11-23T00:13:32.558Z,7.11
2017-11-23T00:16:00.150Z,7.10
2017-11-23T00:18:27.741Z,7.08
2017-11-23T00:20:55.362Z,7.12
2017-11-23T00:23:22.976Z,7.10
2017-11-23T00:25:50.602Z,7.13
2017-11-23T00:28:18.193Z,7.08
2017-11-23T00:30:46.046Z,7.09
2017-11-23T00:33:13.661Z,7.10
2017-11-23T00:35:41.254Z,7.09
2017-11-23T00:38:08.873Z,7.07
2017-11-23T00:40:36.776Z,7.13
2017-11-23T00:43:04.366Z,7.07
2017-11-23T00:45:31.981Z,7.02
2017-11-23T00:47:59.575Z,6.95
2017-11-23T00:50:27.218Z,6.97
2017-11-23T00:52:54.799Z,7.00
2017-11-23T00:55:22.395Z,7.03
2017-11-23T00:57:50.017Z,7.03
2017-11-23T01:00:17.636Z,7.03
2017-11-23T01:02:45.258Z,7.06
2017-11-23T01:05:12.849Z,7.05
2017-11-23T01:07:40.441Z,7.11
2017-11-23T01:10:08.093Z,7.06
2017-11-23T01:12:35.720Z,7.03
2017-11-23T01:15:03.351Z,7.03
2017-11-23T01:17:30.940Z,7.03
2017-11-23T01:19:58.528Z,6.99
2017-11-23T01:22:31.637Z,6.99
2017-11-23T01:24:59.225Z,6.99
2017-11-23T01:27:26.856Z,7.01
2017-11-23T01:29:54.439Z,7.04
2017-11-23T01:32:22.033Z,7.00
2017-11-23T01:34:49.970Z,7.07
2017-11-23T01:37:17.544Z,7.14
2017-11-23T01:39:45.169Z,7.01
2017-11-23T01:42:12.754Z,6.96
2017-11-23T01:44:40.351Z,6.95
2017-11-23T01:47:07.962Z,6.95
2017-11-23T01:49:35.585Z,6.90
2017-11-23T01:52:03.220Z,6.90
2017-11-23T01:54:31.033Z,6.86
2017-11-23T01:56:58.941Z,6.86
2017-11-23T01:59:26.546Z,6.89
2017-11-23T02:01:54.207Z,6.88
2017-11-23T02:04:21.825Z,6.97
2017-11-23T02:06:49.435Z,6.98
2017-11-23T02:09:17.043Z,7.01
2017-11-23T02:11:44.655Z,7.04
2017-11-23T02:14:12.240Z,6.91
2017-11-23T02:16:39.858Z,6.90
2017-11-23T02:19:07.802Z,6.91
2017-11-23T02:21:35.381Z,6.95
2017-11-23T02:24:02.998Z,6.96
2017-11-23T02:26:30.605Z,6.91
2017-11-23T02:28:58.234Z,6.93
2017-11-23T02:31:25.831Z,6.96
2017-11-23T02:33:53.428Z,6.98
2017-11-23T02:36:21.054Z,6.96
2017-11-23T02:38:48.647Z,7.02
2017-11-23T02:41:16.267Z,6.97
2017-11-23T02:43:44.128Z,7.01
2017-11-23T02:46:11.743Z,6.97
2017-11-23T02:48:39.353Z,6.93
2017-11-23T02:51:06.945Z,6.99
2017-11-23T02:53:34.575Z,6.97
2017-11-23T02:56:02.187Z,6.92
2017-11-23T02:58:30.109Z,6.88
2017-11-23T03:00:57.726Z,6.91
2017-11-23T03:03:25.313Z,6.93
2017-11-23T03:05:52.950Z,6.96
2017-11-23T03:08:20.569Z,6.93
2017-11-23T03:10:48.324Z,7.05
2017-11-23T03:13:15.946Z,7.02
2017-11-23T03:15:43.531Z,7.09
2017-11-23T03:18:11.167Z,7.07
2017-11-23T03:20:38.755Z,7.12
2017-11-23T03:23:06.342Z,7.09
2017-11-23T03:25:33.955Z,7.13
2017-11-23T03:28:01.601Z,7.13
2017-11-23T03:30:29.231Z,7.09
2017-11-23T03:32:57.082Z,7.10
2017-11-23T03:35:24.663Z,7.08
2017-11-23T03:37:52.290Z,7.08
2017-11-23T03:40:19.873Z,7.03
2017-11-23T03:42:47.494Z,6.98
2017-11-23T03:45:15.077Z,6.93
2017-11-23T03:47:42.675Z,6.96
2017-11-23T03:50:10.294Z,7.00
2017-11-23T03:52:38.188Z,6.97
2017-11-23T03:55:05.810Z,6.95
2017-11-23T03:57:33.393Z,7.00
2017-11-23T04:00:00.977Z,6.97
2017-11-23T04:02:28.597Z,7.01
2017-11-23T04:04:56.509Z,7.03
2017-11-23T04:07:24.140Z,7.08
2017-11-23T04:09:51.829Z,6.98
2017-11-23T04:12:19.470Z,6.95
2017-11-23T04:14:47.076Z,7.01
2017-11-23T04:17:14.691Z,6.97
2017-11-23T04:19:42.577Z,7.00
2017-11-23T04:22:10.447Z,6.99
2017-11-23T04:24:38.319Z,7.01
2017-11-23T04:27:05.968Z,7.02
2017-11-23T04:29:33.545Z,7.00
2017-11-23T04:32:01.137Z,6.96
2017-11-23T04:34:28.766Z,6.97
2017-11-23T04:36:56.361Z,6.94
2017-11-23T04:39:23.940Z,7.01
2017-11-23T04:41:51.556Z,7.04
2017-11-23T04:44:19.155Z,7.08
2017-11-23T04:46:47.078Z,7.08
2017-11-23T04:49:14.705Z,7.15
2017-11-23T04:51:42.293Z,7.14
2017-11-23T04:54:09.880Z,7.17
2017-11-23T04:56:37.493Z,7.18
2017-11-23T04:59:05.073Z,7.22
2017-11-23T05:01:32.697Z,7.30
2017-11-23T05:04:00.275Z,7.25
2017-11-23T05:06:27.878Z,7.26
2017-11-23T05:08:55.496Z,7.25
2017-11-23T05:11:23.407Z,7.27
2017-11-23T05:13:51.035Z,7.37
2017-11-23T05:16:18.630Z,7.37
2017-11-23T05:18:46.212Z,7.40
2017-11-23T05:21:13.822Z,7.37
2017-11-23T05:23:41.719Z,7.32
2017-11-23T05:26:09.346Z,7.33
2017-11-23T05:28:36.933Z,7.38
2017-11-23T05:31:04.918Z,7.41
2017-11-23T05:33:32.580Z,7.44
2017-11-23T05:36:00.165Z,7.41
2017-11-23T05:38:27.778Z,7.38
2017-11-23T05:40:55.426Z,7.33
2017-11-23T05:43:23.014Z,7.38
2017-11-23T05:45:50.621Z,7.36
2017-11-23T05:48:18.560Z,7.34
2017-11-23T05:50:46.529Z,7.38
2017-11-23T05:53:14.126Z,7.38
2017-11-23T05:55:41.737Z,7.36
2017-11-23T05:58:09.466Z,7.37
2017-11-23T06:00:37.061Z,7.35
2017-11-23T06:03:05.047Z,7.31
2017-11-23T06:05:32.730Z,7.31
2017-11-23T06:08:00.345Z,7.28
2017-11-23T06:10:27.962Z,7.25
2017-11-23T06:12:55.909Z,7.27
2017-11-23T06:15:23.606Z,7.25
2017-11-23T06:17:51.213Z,7.23
2017-11-23T06:20:18.821Z,7.25
2017-11-23T06:22:46.434Z,7.24
2017-11-23T06:25:14.018Z,7.28
2017-11-23T06:27:41.665Z,7.26
2017-11-23T06:30:09.257Z,7.32
2017-11-23T06:32:36.922Z,7.33
2017-11-23T06:35:04.541Z,7.37
2017-11-23T06:37:32.130Z,7.35
2017-11-23T06:39:59.762Z,7.34
2017-11-23T06:42:27.356Z,7.33
2017-11-23T06:44:54.965Z,7.32
2017-11-23T06:47:22.680Z,7.26
2017-11-23T06:49:50.294Z,7.33
2017-11-23T06:52:17.954Z,7.32
2017-11-23T06:54:45.555Z,7.37
2017-11-23T06:57:13.156Z,7.38
2017-11-23T06:59:40.778Z,7.38
2017-11-23T07:02:08.365Z,7.44
2017-11-23T07:04:35.992Z,7.46
2017-11-23T07:07:03.638Z,7.51
2017-11-23T07:09:31.245Z,7.62
2017-11-23T07:11:58.890Z,7.59
2017-11-23T07:14:26.522Z,7.63
2017-11-23T07:16:54.141Z,7.65
2017-11-23T07:19:21.714Z,7.73
2017-11-23T07:21:49.649Z,7.78
2017-11-23T07:24:17.278Z,7.90
2017-11-23T07:26:49.119Z,7.92
2017-11-23T07:29:16.781Z,8.04
2017-11-23T07:31:44.366Z,8.05
2017-11-23T07:34:11.973Z,8.13
2017-11-23T07:36:39.930Z,8.22
2017-11-23T07:39:07.543Z,8.23
2017-11-23T07:41:35.207Z,8.25
2017-11-23T07:44:04.559Z,8.25
2017-11-23T07:46:32.442Z,8.29
2017-11-23T07:49:00.103Z,8.39
2017-11-23T07:51:27.704Z,8.44
2017-11-23T07:53:55.382Z,8.41
2017-11-23T07:56:23.128Z,8.48
2017-11-23T07:58:50.805Z,8.52
2017-11-23T08:01:18.425Z,8.60
2017-11-23T08:03:46.018Z,8.67
2017-11-23T08:06:13.760Z,8.72
2017-11-23T08:08:41.448Z,8.72
2017-11-23T08:11:10.378Z,8.71
2017-11-23T08:13:38.066Z,8.75
2017-11-23T08:16:06.823Z,8.77
2017-11-23T08:18:36.330Z,8.83
2017-11-23T08:21:04.322Z,8.96
2017-11-23T08:23:33.960Z,9.01
2017-11-23T08:26:01.832Z,9.09
2017-11-23T08:28:30.891Z,9.08
2017-11-23T08:30:59.356Z,9.12
2017-11-23T08:33:30.995Z,9.11
2017-11-23T08:36:03.989Z,9.15
2017-11-23T08:38:31.605Z,9.14
2017-11-23T08:41:03.569Z,9.13
2017-11-23T08:43:31.199Z,9.12
2017-11-23T08:45:58.837Z,9.21
2017-11-23T08:48:26.657Z,9.27
2017-11-23T08:50:54.297Z,9.32
2017-11-23T08:53:21.926Z,9.30
2017-11-23T08:55:50.372Z,9.39
2017-11-23T08:58:18.117Z,9.43
2017-11-23T09:00:45.776Z,9.54
2017-11-23T09:03:13.403Z,9.56
2017-11-23T09:05:44.484Z,9.56
2017-11-23T09:08:12.548Z,9.63
2017-11-23T09:10:40.955Z,9.66
2017-11-23T09:13:09.772Z,9.81
2017-11-23T09:15:38.594Z,9.90
2017-11-23T09:18:06.213Z,9.92
2017-11-23T09:20:33.816Z,9.88
2017-11-23T09:23:01.418Z,9.90
2017-11-23T09:25:29.053Z,9.87
2017-11-23T09:27:56.634Z,9.87
2017-11-23T09:30:24.597Z,9.94
2017-11-23T09:32:52.215Z,9.85
2017-11-23T09:35:19.933Z,9.88
2017-11-23T09:37:47.552Z,9.93
2017-11-23T09:40:15.451Z,9.92
2017-11-23T09:42:43.274Z,9.98
2017-11-23T09:45:10.897Z,9.99
2017-11-23T09:47:38.498Z,10.15
2017-11-23T09:50:06.115Z,10.13
2017-11-23T09:52:33.741Z,10.12
2017-11-23T09:55:01.398Z,10.33
2017-11-23T09:57:29.034Z,10.32
2017-11-23T09:59:56.631Z,10.31
2017-11-23T10:02:24.298Z,10.24
2017-11-23T10:04:51.892Z,10.26
2017-11-23T10:07:19.537Z,10.18
2017-11-23T10:09:47.202Z,10.23
2017-11-23T10:12:14.798Z,10.17
2017-11-23T10:14:45.163Z,10.34
2017-11-23T10:17:13.253Z,10.39
2017-11-23T10:19:40.938Z,10.48
2017-11-23T10:22:08.527Z,10.55
2017-11-23T10:24:36.155Z,10.56
2017-11-23T10:27:03.822Z,10.54
2017-11-23T10:29:31.409Z,10.59
2017-11-23T10:31:59.045Z,10.70
2017-11-23T10:34:26.645Z,10.70
2017-11-23T10:36:54.245Z,10.85
2017-11-23T10:39:21.881Z,10.85
2017-11-23T10:41:49.485Z,10.88
2017-11-23T10:44:17.239Z,10.82
2017-11-23T10:46:44.872Z,10.89
2017-11-23T10:49:12.501Z,10.93
2017-11-23T10:51:40.134Z,10.88
2017-11-23T10:54:07.751Z,11.01
2017-11-23T10:56:35.390Z,10.91
2017-11-23T10:59:03.010Z,10.95
2017-11-23T11:01:30.627Z,10.96
2017-11-23T11:03:58.250Z,10.99
2017-11-23T11:06:25.918Z,11.03
2017-11-23T11:08:53.540Z,11.08
2017-11-23T11:11:21.185Z,11.04
2017-11-23T11:13:48.776Z,11.04
2017-11-23T11:16:16.402Z,11.03
2017-11-23T11:18:44.048Z,11.08
2017-11-23T11:21:11.721Z,11.06
2017-11-23T11:23:39.345Z,11.09
2017-11-23T11:26:07.174Z,11.00
2017-11-23T11:28:34.793Z,11.02
2017-11-23T11:31:02.381Z,11.04
2017-11-23T11:33:30.016Z,11.06
2017-11-23T11:35:57.603Z,11.08
2017-11-23T11:38:25.521Z,11.15
2017-11-23T11:40:53.158Z,11.12
2017-11-23T11:43:21.057Z,11.22
2017-11-23T11:45:48.682Z,11.22
2017-11-23T11:48:16.278Z,11.21
2017-11-23T11:50:43.862Z,11.24
2017-11-23T11:53:11.521Z,11.30
2017-11-23T11:55:39.118Z,11.28
2017-11-23T11:58:06.746Z,11.41
2017-11-23T12:00:34.595Z,11.38
2017-11-23T12:03:02.178Z,11.45
2017-11-23T12:05:29.787Z,11.49
2017-11-23T12:07:57.405Z,11.52
2017-11-23T12:10:25.366Z,11.50
2017-11-23T12:12:52.957Z,11.52
2017-11-23T12:15:32.450Z,11.56
2017-11-23T12:21:13.858Z,11.53
2017-11-23T12:23:45.230Z,11.49
2017-11-23T12:26:12.853Z,11.50
2017-11-23T12:28:52.252Z,11.56
2017-11-23T12:31:21.432Z,11.60
2017-11-23T12:33:49.085Z,11.56
2017-11-23T12:36:17.043Z,11.60
2017-11-23T12:38:44.635Z,11.60
2017-11-23T12:41:12.470Z,11.58
2017-11-23T12:43:40.085Z,11.65
2017-11-23T12:46:07.685Z,11.67
2017-11-23T12:48:35.566Z,11.70
2017-11-23T12:51:03.181Z,11.66
2017-11-23T12:53:30.801Z,11.68
2017-11-23T12:55:58.384Z,11.75
2017-11-23T12:58:26.317Z,11.74
2017-11-23T13:01:06.629Z,11.74
2017-11-23T13:03:35.193Z,11.72
2017-11-23T13:06:03.396Z,11.78
2017-11-23T13:08:31.070Z,11.76
2017-11-23T13:10:58.676Z,11.80
2017-11-23T13:13:26.269Z,11.80
2017-11-23T13:15:53.887Z,11.81
2017-11-23T13:18:21.749Z,11.85
2017-11-23T13:20:49.393Z,11.85
2017-11-23T13:23:17.015Z,11.85
2017-11-23T13:25:44.597Z,11.89
2017-11-23T13:28:12.513Z,11.89
2017-11-23T13:30:40.375Z,12.01
2017-11-23T13:33:07.977Z,12.02
2017-11-23T13:35:35.608Z,11.97
2017-11-23T13:38:03.199Z,11.94
2017-11-23T13:40:30.786Z,12.00
2017-11-23T13:42:58.433Z,11.99
2017-11-23T13:45:26.024Z,12.03
2017-11-23T13:47:53.612Z,12.02
2017-11-23T13:50:21.586Z,12.08
2017-11-23T13:52:49.447Z,12.13
2017-11-23T13:55:17.085Z,12.16
2017-11-23T13:57:44.715Z,12.18
2017-11-23T14:00:12.297Z,12.19
2017-11-23T14:02:39.929Z,12.15
2017-11-23T14:05:07.557Z,12.20
2017-11-23T14:07:35.189Z,12.17
2017-11-23T14:10:02.774Z,12.19
2017-11-23T14:12:30.369Z,12.20
2017-11-23T14:14:58.005Z,12.24
2017-11-23T14:17:25.874Z,12.25
2017-11-23T14:19:53.587Z,12.22
2017-11-23T14:22:21.167Z,12.22
2017-11-23T14:24:48.764Z,12.33
2017-11-23T14:27:16.388Z,12.33
2017-11-23T14:29:44.014Z,12.40
2017-11-23T14:32:11.663Z,12.43
2017-11-23T14:34:39.254Z,12.47
2017-11-23T14:37:06.844Z,12.49
2017-11-23T14:39:34.450Z,12.42
2017-11-23T14:42:02.078Z,12.40
2017-11-23T14:44:29.762Z,12.40
2017-11-23T14:46:57.351Z,12.36
2017-11-23T14:49:24.974Z,12.37
2017-11-23T14:51:52.845Z,12.37
2017-11-23T14:54:20.438Z,12.39
2017-11-23T14:56:48.059Z,12.41
2017-11-23T14:59:15.937Z,12.41
2017-11-23T15:01:43.598Z,12.36
2017-11-23T15:04:11.268Z,12.34
2017-11-23T15:06:38.850Z,12.36
2017-11-23T15:09:06.499Z,12.35
2017-11-23T15:11:34.090Z,12.28
2017-11-23T15:14:02.018Z,12.24
2017-11-23T15:16:29.598Z,12.28
2017-11-23T15:18:57.193Z,12.19
2017-11-23T15:21:24.819Z,12.11
2017-11-23T15:23:52.393Z,12.14
2017-11-23T15:26:20.031Z,12.10
2017-11-23T15:28:47.897Z,12.12
2017-11-23T15:31:15.500Z,12.13
2017-11-23T15:33:47.688Z,12.07
2017-11-23T15:36:15.317Z,12.08
2017-11-23T15:38:42.948Z,12.09
2017-11-23T15:41:10.536Z,12.05
2017-11-23T15:43:38.121Z,12.04
2017-11-23T15:46:06.041Z,12.05
2017-11-23T15:48:33.910Z,12.00
2017-11-23T15:51:01.565Z,12.01
2017-11-23T15:53:29.154Z,11.99
2017-11-23T15:55:56.729Z,12.04
2017-11-23T15:58:24.663Z,11.97
2017-11-23T16:00:52.245Z,11.98
2017-11-23T16:03:19.864Z,12.03
2017-11-23T16:05:47.459Z,12.03
2017-11-23T16:08:15.042Z,12.09
2017-11-23T16:10:42.652Z,12.08
2017-11-23T16:13:10.285Z,12.08
2017-11-23T16:15:37.920Z,12.06
2017-11-23T16:18:05.563Z,12.04
2017-11-23T16:20:33.335Z,12.09
2017-11-23T16:23:00.952Z,12.07
2017-11-23T16:25:28.866Z,12.10
2017-11-23T16:27:56.506Z,12.14
2017-11-23T16:30:24.109Z,12.14
2017-11-23T16:32:51.692Z,12.19
2017-11-23T16:35:19.610Z,12.16
2017-11-23T16:37:50.626Z,12.20
2017-11-23T16:40:32.123Z,12.15
2017-11-23T16:42:59.729Z,12.16
2017-11-23T16:45:32.849Z,12.15
2017-11-23T16:48:05.945Z,12.15
2017-11-23T16:50:49.314Z,12.16
2017-11-23T16:53:22.814Z,12.19
2017-11-23T16:58:55.823Z,12.13
2017-11-23T17:01:29.053Z,12.16
2017-11-23T17:03:57.459Z,12.14
2017-11-23T17:09:42.492Z,12.10
2017-11-23T17:12:15.755Z,12.14
2017-11-23T17:14:48.953Z,12.11
2017-11-23T17:20:17.466Z,12.12
2017-11-23T17:22:45.083Z,12.11
2017-11-23T17:25:12.713Z,12.15
2017-11-23T17:27:40.369Z,12.14
2017-11-23T17:30:07.965Z,12.15
2017-11-23T17:32:35.600Z,12.15
2017-11-23T17:35:03.234Z,12.20
2017-11-23T17:37:31.705Z,12.17
2017-11-23T17:39:59.356Z,12.21
2017-11-23T17:42:27.005Z,12.21
2017-11-23T17:44:54.605Z,12.21
2017-11-23T17:47:22.237Z,12.25
2017-11-23T17:49:49.888Z,12.22
2017-11-23T17:52:17.581Z,12.23
2017-11-23T17:54:45.482Z,12.23
2017-11-23T17:57:13.196Z,12.20
2017-11-23T17:59:40.818Z,12.23
2017-11-23T18:02:08.403Z,12.24
2017-11-23T18:04:36.029Z,12.25
2017-11-23T18:07:03.656Z,12.23
2017-11-23T18:09:31.258Z,12.21
2017-11-23T18:11:58.875Z,12.25
2017-11-23T18:14:26.459Z,12.20
2017-11-23T18:16:54.103Z,12.23
2017-11-23T18:19:21.698Z,12.21
2017-11-23T18:21:49.293Z,12.26
2017-11-23T18:24:17.236Z,12.27
2017-11-23T18:26:44.821Z,12.30
2017-11-23T18:29:12.681Z,12.30
2017-11-23T18:31:40.265Z,12.32
2017-11-23T18:34:08.196Z,12.39
2017-11-23T18:36:35.821Z,12.34
2017-11-23T18:39:03.433Z,12.29
2017-11-23T18:41:31.142Z,12.31
2017-11-23T18:43:58.731Z,12.35
2017-11-23T18:46:26.361Z,12.30
2017-11-23T18:48:54.286Z,12.25
2017-11-23T18:51:21.889Z,12.19
2017-11-23T18:53:49.520Z,12.18
2017-11-23T18:56:17.125Z,12.16
2017-11-23T18:58:44.718Z,12.16
2017-11-23T19:01:12.369Z,12.10
2017-11-23T19:03:39.962Z,12.08
2017-11-23T19:06:07.589Z,12.04
2017-11-23T19:08:35.198Z,12.03
2017-11-23T19:11:02.792Z,12.04
2017-11-23T19:13:30.429Z,12.05
2017-11-23T19:15:58.021Z,12.01
2017-11-23T19:18:25.657Z,11.93
2017-11-23T19:20:53.250Z,11.93
2017-11-23T19:23:20.852Z,11.83
2017-11-23T19:25:48.478Z,11.81
2017-11-23T19:28:16.383Z,11.79
2017-11-23T19:30:44.016Z,11.79
2017-11-23T19:33:11.602Z,11.76
2017-11-23T19:35:39.466Z,11.77
2017-11-23T19:38:07.069Z,11.72
2017-11-23T19:40:34.678Z,11.70
2017-11-23T19:43:02.344Z,11.67
2017-11-23T19:45:30.227Z,11.69
2017-11-23T19:47:57.831Z,11.68
2017-11-23T19:50:25.522Z,11.66
2017-11-23T19:52:53.136Z,11.66
2017-11-23T19:55:20.766Z,11.65
2017-11-23T19:57:48.369Z,11.65
2017-11-23T20:00:15.961Z,11.69
2017-11-23T20:02:43.580Z,11.72
2017-11-23T20:05:11.175Z,11.68
2017-11-23T20:07:38.809Z,11.71
2017-11-23T20:10:06.409Z,11.71
2017-11-23T20:12:34.007Z,11.68
2017-11-23T20:15:01.625Z,11.74
2017-11-23T20:17:29.227Z,11.76
2017-11-23T20:19:56.877Z,11.85
2017-11-23T20:22:24.559Z,11.86
2017-11-23T20:24:52.157Z,11.91
2017-11-23T20:27:19.800Z,11.93
2017-11-23T20:29:47.676Z,11.90
2017-11-23T20:32:15.319Z,11.89
2017-11-23T20:34:42.959Z,11.92
2017-11-23T20:37:10.639Z,11.96
2017-11-23T20:39:38.271Z,11.98
2017-11-23T20:42:05.930Z,12.03
2017-11-23T20:44:33.670Z,12.04
2017-11-23T20:47:01.267Z,12.03
2017-11-23T20:49:29.160Z,12.04
2017-11-23T20:51:56.770Z,12.02
2017-11-23T20:54:24.365Z,12.05
2017-11-23T20:56:52.004Z,12.10
2017-11-23T20:59:19.591Z,12.13
2017-11-23T21:01:47.188Z,12.16
2017-11-23T21:04:14.841Z,12.17
2017-11-23T21:06:42.489Z,12.14
2017-11-23T21:09:10.113Z,12.23
2017-11-23T21:11:42.266Z,12.14
2017-11-23T21:14:09.881Z,12.12
2017-11-23T21:16:37.847Z,12.13
2017-11-23T21:19:05.446Z,12.18
2017-11-23T21:21:33.074Z,12.18
2017-11-23T21:24:00.665Z,12.27
2017-11-23T21:26:28.290Z,12.26
2017-11-23T21:28:55.899Z,12.25
2017-11-23T21:31:23.481Z,12.27
2017-11-23T21:33:51.211Z,12.28
2017-11-23T21:36:18.875Z,12.27
2017-11-23T21:38:46.524Z,12.31
2017-11-23T21:41:14.122Z,12.33
2017-11-23T21:43:41.722Z,12.39
2017-11-23T21:46:09.342Z,12.43
2017-11-23T21:48:36.942Z,12.39
2017-11-23T21:51:04.582Z,12.40
2017-11-23T21:53:33.447Z,12.40
2017-11-23T21:56:01.057Z,12.39
2017-11-23T21:58:28.688Z,12.49
2017-11-23T22:00:56.409Z,12.43
2017-11-23T22:03:24.074Z,12.43
2017-11-23T22:05:51.657Z,12.43
2017-11-23T22:08:19.252Z,12.42
2017-11-23T22:10:46.963Z,12.38
2017-11-23T22:13:14.561Z,12.43
2017-11-23T22:15:42.583Z,12.44
2017-11-23T22:18:10.184Z,12.43
2017-11-23T22:20:37.783Z,12.40
2017-11-23T22:23:05.461Z,12.35
2017-11-23T22:25:33.096Z,12.35
2017-11-23T22:28:01.225Z,12.35
2017-11-23T22:30:28.817Z,12.37
2017-11-23T22:32:56.433Z,12.39
2017-11-23T22:35:24.045Z,12.36
2017-11-23T22:37:51.741Z,12.35
2017-11-23T22:40:19.367Z,12.39
2017-11-23T22:42:46.986Z,12.37
2017-11-23T22:45:14.580Z,12.40
2017-11-23T22:47:42.508Z,12.38
2017-11-23T22:50:10.093Z,12.36
2017-11-23T22:52:37.724Z,12.34
2017-11-23T22:55:05.316Z,12.35
2017-11-23T22:57:32.919Z,12.39
2017-11-23T23:00:00.542Z,12.36
2017-11-23T23:02:28.395Z,12.33
